This is the latest recevied weather packets stored in our database for station/object LRCK. If no packets are shown the sender has not sent any weather packets the latest 10 day(s).
| Time | Temp. | Humidity | Pressure | Rain* | Wind** | Luminosity | Snow |
|---|---|---|---|---|---|---|---|
| 1777670297 | 2.22° C | 81% | 1024 hPa | - | - | - | - |
| 1777669398 | 2.22° C | 81% | 1024 hPa | - | - | - | - |
| 1777668497 | 3.89° C | 70% | 1024 hPa | - | - | - | - |
| 1777667597 | 3.89° C | 70% | 1024 hPa | - | - | - | - |
| 1777666697 | 2.78° C | 81% | 1024 hPa | - | - | - | - |
| 1777665797 | 2.78° C | 81% | 1024 hPa | - | - | - | - |
| 1777664915 | 2.78° C | 75% | 1024 hPa | - | - | - | - |
| 1777664019 | 2.78° C | 75% | 1024 hPa | - | - | - | - |
| 1777663097 | 2.78° C | 75% | 1024 hPa | - | - | - | - |
| 1777662197 | 2.78° C | 75% | 1024 hPa | - | - | - | - |
| 1777661297 | 7.22° C | 53% | 1024 hPa | - | - | - | - |
| 1777660426 | 7.22° C | 53% | 1024 hPa | - | - | - | - |
| 1777659498 | 7.78° C | 50% | 1024 hPa | - | - | - | - |
| 1777658620 | 7.78° C | 50% | 1024 hPa | - | - | - | - |
| 1777657698 | 7.78° C | 53% | 1024 hPa | - | - | - | - |
| 1777656797 | 7.78° C | 53% | 1024 hPa | - | - | - | - |
| 1777655922 | 8.89° C | 58% | 1024 hPa | - | - | - | - |
| 1777654997 | 8.89° C | 58% | 1024 hPa | - | - | - | - |
| 1777654097 | 8.89° C | 58% | 1024 hPa | - | - | - | - |
| 1777653197 | 8.89° C | 58% | 1024 hPa | - | - | - | - |
| 1777652297 | 10° C | 47% | 1023 hPa | - | - | - | - |
| 1777651397 | 10° C | 47% | 1023 hPa | - | - | - | - |
| 1777650497 | 10° C | 47% | 1023 hPa | - | - | - | - |
| 1777649597 | 10° C | 47% | 1023 hPa | - | - | - | - |
| 1777648698 | 10° C | 43% | 1023 hPa | - | - | - | - |
* Rain since midnight (hover to see other rain measurements)
** Current wind speed in m/s (hover to see current wind gust speed)